Bata, Equatorial Guinea
Current Conditions -  °F | °C
As of 3:00 PM on Friday 19 Dec 2014 (Local Time) from FGBT Reporting Station
Few Clouds Few Clouds  
Wind Chill: 88°   Ceiling: Unl
Heat Index: 100°   Visibility: 6mi
Dew Point: 77°   Wind: 5mph
Humidity: 70%   Direction: 260°W
Pressure: 29.83"   Gusts: NA
Location:  1.87°N, 9.76°E
Report Text: FGBT 191400Z 26004KT 9999 FEW010 31/25 Q1010 NOSIG
Loading
Personal Weather Stations






























Interactive Weather Map New forecast layout! Learn more

10-Day Weather Forecast

Advertisements
Track Severe Weather on mobile